Terminal Aerodrome Forecast
Issued by NWS

Home | Current Version | Previous Version | Text Only | Print | Product List | Glossary On
Versions: 1 2 3 4 5 6 7 8 9 10 11 12 13 14 15 16 17 18 19 20 21 22 23 24 25 26
000
FTUS45 KBOU 210534
TAFBJC
TAF
KBJC 210534Z 2106/2206 30011KT P6SM FEW090 SCT120
     FM211200 36007KT P6SM BKN040 BKN080
     FM211600 08005KT P6SM FEW050 SCT090
     FM212000 14007KT P6SM SCT090
     FM220200 25007KT P6SM FEW120=

USA.gov is the U.S. government's official web portal to all federal, state and local government web resources and services.